createdAt,value
2023-01-29T00:00:50.741Z,73.90
2023-01-29T00:03:41.296Z,74.11
2023-01-29T00:06:28.093Z,74.34
2023-01-29T00:09:14.711Z,74.67
2023-01-29T00:12:01.571Z,74.37
2023-01-29T00:14:48.238Z,74.76
2023-01-29T00:17:34.908Z,75.17
2023-01-29T00:20:21.565Z,75.47
2023-01-29T00:23:08.555Z,75.16
2023-01-29T00:25:55.245Z,75.28
2023-01-29T00:28:41.764Z,75.38
2023-01-29T00:31:28.952Z,76.01
2023-01-29T00:34:15.677Z,76.00
2023-01-29T00:37:08.914Z,75.90
2023-01-29T00:39:55.358Z,76.29
2023-01-29T00:43:02.760Z,76.17
2023-01-29T00:45:49.237Z,76.77
2023-01-29T00:48:36.278Z,75.97
2023-01-29T00:51:22.990Z,76.16
2023-01-29T00:54:09.642Z,76.29
2023-01-29T00:56:56.319Z,76.31
2023-01-29T00:59:43.069Z,75.62
2023-01-29T01:02:48.464Z,75.30
2023-01-29T01:05:36.863Z,75.37
2023-01-29T01:08:42.455Z,75.58
2023-01-29T01:11:28.900Z,75.27
2023-01-29T01:14:15.780Z,75.47
2023-01-29T01:17:03.154Z,75.31
2023-01-29T01:19:49.552Z,75.49
2023-01-29T01:22:36.090Z,74.88
2023-01-29T01:25:25.113Z,75.05
2023-01-29T01:28:12.185Z,75.27
2023-01-29T01:31:08.978Z,74.81
2023-01-29T01:33:55.737Z,74.97
2023-01-29T01:36:42.449Z,74.83
2023-01-29T01:39:29.514Z,75.34
2023-01-29T01:42:16.128Z,75.78
2023-01-29T01:45:06.430Z,76.29
2023-01-29T01:48:07.858Z,76.37
2023-01-29T01:51:04.432Z,75.97
2023-01-29T01:54:04.353Z,75.73
2023-01-29T01:57:04.932Z,75.38
2023-01-29T02:00:03.917Z,75.45
2023-01-29T02:03:09.399Z,75.16
2023-01-29T02:06:17.450Z,75.09
2023-01-29T02:09:35.542Z,74.91
2023-01-29T02:12:23.162Z,75.92
2023-01-29T02:15:10.915Z,75.55
2023-01-29T02:18:00.021Z,75.40
2023-01-29T02:21:09.838Z,75.62
2023-01-29T02:24:13.070Z,75.74
2023-01-29T02:27:07.806Z,75.49
2023-01-29T02:30:08.356Z,75.76
2023-01-29T02:33:09.708Z,75.95
2023-01-29T02:36:11.630Z,76.16
2023-01-29T02:39:34.090Z,76.03
2023-01-29T02:42:30.855Z,76.05
2023-01-29T02:45:31.729Z,76.10
2023-01-29T02:48:22.491Z,76.54
2023-01-29T02:51:24.621Z,76.83
2023-01-29T02:54:25.004Z,76.59
2023-01-29T02:57:24.071Z,76.54
2023-01-29T03:00:18.774Z,76.83
2023-01-29T03:03:16.363Z,76.89
2023-01-29T03:06:22.444Z,76.63
2023-01-29T03:09:16.568Z,76.93
2023-01-29T03:12:34.071Z,77.25
2023-01-29T03:15:27.238Z,77.32
2023-01-29T03:18:28.338Z,77.69
2023-01-29T03:21:39.392Z,77.91
2023-01-29T03:25:10.689Z,78.03
2023-01-29T03:28:18.997Z,77.91
2023-01-29T03:31:28.818Z,78.39
2023-01-29T03:34:44.950Z,78.88
2023-01-29T03:37:46.392Z,79.03
2023-01-29T03:40:58.147Z,78.65
2023-01-29T03:44:40.428Z,78.53
2023-01-29T03:47:42.282Z,78.40
2023-01-29T03:50:42.894Z,78.78
2023-01-29T03:53:51.693Z,78.72
2023-01-29T03:57:16.079Z,78.91
2023-01-29T04:00:21.265Z,79.05
2023-01-29T04:03:19.754Z,79.31
2023-01-29T04:06:20.773Z,79.30
2023-01-29T04:09:37.492Z,79.33
2023-01-29T04:12:35.937Z,79.16
2023-01-29T04:15:26.018Z,78.91
2023-01-29T04:18:12.443Z,79.07
2023-01-29T04:21:01.355Z,78.95
2023-01-29T04:23:47.797Z,79.05
2023-01-29T04:27:03.591Z,79.13
2023-01-29T04:30:17.021Z,79.19
2023-01-29T04:33:08.931Z,79.27
2023-01-29T04:36:08.403Z,79.29
2023-01-29T04:39:23.878Z,79.12
2023-01-29T04:42:29.908Z,79.17
2023-01-29T04:45:41.027Z,79.17
2023-01-29T04:48:45.743Z,79.03
2023-01-29T04:51:43.567Z,78.97
2023-01-29T04:54:51.933Z,79.09
2023-01-29T04:58:07.081Z,79.09
2023-01-29T05:00:54.743Z,79.04
2023-01-29T05:03:44.368Z,78.96
2023-01-29T05:06:32.713Z,78.76
2023-01-29T05:09:20.021Z,78.75
2023-01-29T05:12:09.965Z,78.54
2023-01-29T05:15:02.211Z,78.59
2023-01-29T05:17:48.825Z,78.81
2023-01-29T05:20:39.447Z,78.98
2023-01-29T05:23:26.232Z,78.83
2023-01-29T05:26:31.441Z,78.73
2023-01-29T05:29:18.096Z,78.39
2023-01-29T05:32:05.260Z,78.60
2023-01-29T05:34:51.707Z,78.68
2023-01-29T05:37:40.552Z,78.51
2023-01-29T05:40:27.205Z,78.28
2023-01-29T05:43:16.948Z,78.23
2023-01-29T05:46:04.410Z,78.56
2023-01-29T05:48:53.130Z,78.52
2023-01-29T05:51:39.614Z,78.77
2023-01-29T05:54:26.130Z,78.50
2023-01-29T05:57:12.565Z,78.44
2023-01-29T05:59:59.207Z,78.79
2023-01-29T06:02:46.330Z,78.76
2023-01-29T06:05:33.257Z,78.68
2023-01-29T06:08:19.866Z,78.59
2023-01-29T06:11:12.052Z,78.81
2023-01-29T06:13:58.525Z,78.71
2023-01-29T06:16:45.247Z,78.96
2023-01-29T06:19:31.844Z,78.72
2023-01-29T06:22:18.487Z,78.48
2023-01-29T06:25:05.478Z,78.36
2023-01-29T06:27:52.100Z,78.50
2023-01-29T06:30:38.787Z,78.35
2023-01-29T06:33:25.698Z,78.13
2023-01-29T06:36:12.421Z,78.16
2023-01-29T06:38:59.054Z,78.42
2023-01-29T06:41:46.418Z,78.04
2023-01-29T06:44:32.764Z,77.82
2023-01-29T06:47:20.574Z,77.56
2023-01-29T06:50:07.201Z,77.84
2023-01-29T06:52:53.931Z,77.98
2023-01-29T06:55:40.679Z,77.94
2023-01-29T06:58:28.182Z,77.86
2023-01-29T07:01:29.314Z,77.46
2023-01-29T07:04:21.514Z,77.61
2023-01-29T07:07:13.217Z,76.92
2023-01-29T07:09:59.993Z,77.34
2023-01-29T07:12:46.551Z,77.87
2023-01-29T07:15:33.131Z,77.52
2023-01-29T07:18:19.779Z,77.59
2023-01-29T07:21:10.134Z,77.60
2023-01-29T07:23:59.556Z,76.94
2023-01-29T07:26:46.192Z,76.68
2023-01-29T07:29:32.711Z,76.76
2023-01-29T07:32:19.265Z,76.25
2023-01-29T07:35:07.902Z,76.19
2023-01-29T07:37:54.864Z,76.01
2023-01-29T07:41:32.117Z,75.96
2023-01-29T07:44:20.525Z,75.81
2023-01-29T07:47:07.165Z,75.58
2023-01-29T07:50:28.870Z,75.91
2023-01-29T07:53:15.008Z,75.68
2023-01-29T07:56:02.975Z,76.08
2023-01-29T07:58:47.925Z,75.90
2023-01-29T08:01:33.163Z,75.59
2023-01-29T08:04:18.199Z,75.70
2023-01-29T08:07:04.223Z,75.77
2023-01-29T08:09:49.273Z,75.31
2023-01-29T08:12:34.412Z,75.58
2023-01-29T08:15:19.368Z,75.45
2023-01-29T08:18:07.531Z,75.12
2023-01-29T08:20:53.197Z,75.13
2023-01-29T08:23:39.641Z,75.61
2023-01-29T08:26:26.612Z,75.69
2023-01-29T08:33:39.278Z,74.95
2023-01-29T08:36:39.880Z,74.98
2023-01-29T08:39:26.535Z,75.38
2023-01-29T08:42:14.345Z,75.31
2023-01-29T08:45:01.120Z,75.02
2023-01-29T08:47:49.203Z,75.38
2023-01-29T08:50:44.584Z,75.31
2023-01-29T08:54:49.006Z,75.49
2023-01-29T08:58:36.514Z,75.59
2023-01-29T09:01:58.700Z,75.70
2023-01-29T09:05:53.783Z,75.56
2023-01-29T09:09:54.038Z,75.25
2023-01-29T09:19:26.223Z,75.83
2023-01-29T09:33:49.681Z,75.29
2023-01-29T09:36:36.210Z,75.47
2023-01-29T09:39:22.731Z,76.07
2023-01-29T09:42:18.288Z,77.06
2023-01-29T09:45:06.971Z,77.33
2023-01-29T09:48:13.378Z,77.97
2023-01-29T09:51:06.063Z,78.77
2023-01-29T09:54:32.571Z,78.90
2023-01-29T09:58:41.204Z,77.69
2023-01-29T10:03:04.572Z,76.83
2023-01-29T10:07:01.671Z,76.20
2023-01-29T10:11:13.198Z,75.45
2023-01-29T10:25:50.265Z,76.42
2023-01-29T10:39:21.407Z,79.02
2023-01-29T10:42:42.958Z,80.16
2023-01-29T10:57:43.308Z,81.29
2023-01-29T11:00:45.947Z,81.03
2023-01-29T11:04:45.108Z,81.33
2023-01-29T11:12:50.944Z,83.72
2023-01-29T11:16:29.737Z,84.48
2023-01-29T11:19:47.557Z,84.92
2023-01-29T11:24:16.859Z,85.12
2023-01-29T11:27:51.826Z,84.53
2023-01-29T11:31:02.542Z,83.89
2023-01-29T11:45:53.257Z,82.35
2023-01-29T11:49:14.184Z,82.32
2023-01-29T11:52:42.405Z,83.61
2023-01-29T11:56:51.861Z,83.69
2023-01-29T11:59:51.959Z,83.91
2023-01-29T12:02:46.179Z,84.00
2023-01-29T12:05:33.706Z,83.84
2023-01-29T12:08:22.891Z,83.53
2023-01-29T12:11:24.530Z,83.36
2023-01-29T12:14:34.051Z,83.91
2023-01-29T12:17:26.792Z,84.25
2023-01-29T12:20:23.337Z,84.66
2023-01-29T12:23:48.584Z,84.81
2023-01-29T12:26:46.753Z,85.07
2023-01-29T12:29:40.565Z,85.30
2023-01-29T12:32:35.818Z,85.57
2023-01-29T12:37:19.286Z,85.68
2023-01-29T12:41:21.631Z,86.63
2023-01-29T12:44:21.156Z,86.97
2023-01-29T12:47:22.530Z,86.94
2023-01-29T12:50:27.653Z,86.70
2023-01-29T12:53:14.305Z,86.82
2023-01-29T12:56:11.195Z,86.25
2023-01-29T12:59:01.576Z,86.18
2023-01-29T13:02:00.328Z,86.37
2023-01-29T13:04:54.380Z,86.83
2023-01-29T13:07:50.469Z,86.91
2023-01-29T13:10:44.439Z,87.10
2023-01-29T13:13:37.142Z,86.96
2023-01-29T13:16:30.470Z,87.32
2023-01-29T13:19:29.566Z,87.59
2023-01-29T13:22:28.920Z,87.32
2023-01-29T13:25:20.170Z,87.32
2023-01-29T13:28:17.742Z,87.22
2023-01-29T13:31:13.857Z,87.47
2023-01-29T13:34:15.158Z,87.66
2023-01-29T13:37:09.540Z,88.59
2023-01-29T13:39:58.246Z,89.12
2023-01-29T13:42:50.055Z,89.52
2023-01-29T13:45:44.671Z,90.18
2023-01-29T13:48:32.550Z,89.93
2023-01-29T13:51:22.883Z,89.58
2023-01-29T13:54:20.818Z,89.95
2023-01-29T13:57:40.177Z,90.51
2023-01-29T14:00:36.079Z,90.76
2023-01-29T14:03:25.784Z,91.24
2023-01-29T14:06:40.442Z,91.52
2023-01-29T14:09:53.780Z,91.63
2023-01-29T14:15:23.932Z,91.57
2023-01-29T14:19:26.621Z,91.93
2023-01-29T14:23:47.425Z,92.18
2023-01-29T14:42:37.637Z,93.41
2023-01-29T14:45:53.884Z,93.91
2023-01-29T15:00:42.826Z,93.54
2023-01-29T15:11:25.334Z,94.74
2023-01-29T15:16:28.182Z,95.18
2023-01-29T15:30:28.986Z,94.64
2023-01-29T15:43:58.945Z,93.78
2023-01-29T16:12:00.691Z,94.55
2023-01-29T16:15:33.638Z,94.96
2023-01-29T16:43:17.867Z,97.09
2023-01-29T16:57:41.910Z,97.23
2023-01-29T17:00:47.555Z,98.38
2023-01-29T17:15:42.652Z,99.76
2023-01-29T17:18:41.099Z,99.78
2023-01-29T17:21:30.464Z,100.00
2023-01-29T17:24:17.113Z,100.00
2023-01-29T17:27:03.729Z,100.00
2023-01-29T17:29:52.549Z,100.00
2023-01-29T17:34:12.652Z,100.00
2023-01-29T17:36:59.148Z,100.00
2023-01-29T17:40:28.255Z,100.00
2023-01-29T17:43:15.246Z,100.00
2023-01-29T17:46:06.210Z,100.00
2023-01-29T17:49:36.107Z,100.00
2023-01-29T17:52:22.836Z,100.00
2023-01-29T17:55:13.011Z,100.00
2023-01-29T17:57:59.532Z,100.00
2023-01-29T18:03:12.707Z,100.00
2023-01-29T18:06:51.186Z,100.00
2023-01-29T18:21:31.991Z,98.23
2023-01-29T18:25:39.820Z,97.56
2023-01-29T18:29:28.905Z,98.01
2023-01-29T18:43:17.235Z,96.69
2023-01-29T18:46:04.931Z,96.18
2023-01-29T18:48:52.187Z,96.83
2023-01-29T18:51:42.061Z,96.54
2023-01-29T18:56:24.336Z,97.02
2023-01-29T19:00:12.748Z,97.46
2023-01-29T19:02:58.682Z,97.54
2023-01-29T19:05:44.388Z,97.55
2023-01-29T19:08:30.700Z,96.96
2023-01-29T19:11:16.257Z,96.29
2023-01-29T19:14:01.997Z,96.38
2023-01-29T19:16:47.222Z,96.12
2023-01-29T19:19:32.372Z,95.97
2023-01-29T19:22:18.316Z,95.95
2023-01-29T19:26:26.808Z,96.03
2023-01-29T19:29:13.682Z,96.30
2023-01-29T19:32:01.360Z,96.39
2023-01-29T19:34:47.908Z,96.31
2023-01-29T19:37:34.808Z,96.32
2023-01-29T19:51:16.814Z,95.39
2023-01-29T19:54:15.639Z,95.02
2023-01-29T20:09:05.814Z,94.68
2023-01-29T20:12:34.400Z,94.80
2023-01-29T20:15:54.080Z,95.14
2023-01-29T20:19:22.360Z,96.07
2023-01-29T20:33:22.190Z,95.67
2023-01-29T20:36:37.246Z,95.80
2023-01-29T20:50:30.353Z,95.05
2023-01-29T20:53:28.535Z,95.13
2023-01-29T20:57:23.716Z,95.78
2023-01-29T21:11:49.380Z,94.67
2023-01-29T21:14:36.275Z,94.45
2023-01-29T21:17:28.499Z,94.59
2023-01-29T21:20:16.557Z,94.66
2023-01-29T21:24:54.601Z,94.58
2023-01-29T21:28:27.475Z,95.77
2023-01-29T21:42:48.364Z,95.62
2023-01-29T21:45:55.256Z,96.07
2023-01-29T21:49:44.480Z,96.49
2023-01-29T21:53:04.018Z,97.28
2023-01-29T21:56:39.578Z,97.67
2023-01-29T22:00:39.629Z,97.56
2023-01-29T22:04:18.135Z,97.83
2023-01-29T22:08:16.380Z,98.03
2023-01-29T22:11:09.090Z,97.97
2023-01-29T22:13:54.450Z,98.05
2023-01-29T22:16:39.710Z,98.07
2023-01-29T22:25:29.990Z,98.35
2023-01-29T22:29:32.281Z,98.31
2023-01-29T22:33:29.138Z,98.41
2023-01-29T22:37:24.353Z,98.53
2023-01-29T22:41:40.221Z,98.83
2023-01-29T22:44:25.372Z,99.03
2023-01-29T22:47:10.751Z,98.93
2023-01-29T22:49:55.701Z,98.84
2023-01-29T22:52:42.102Z,98.87
2023-01-29T22:57:51.453Z,98.80
2023-01-29T23:01:49.298Z,98.71
2023-01-29T23:06:06.103Z,99.01
2023-01-29T23:09:25.173Z,99.27
2023-01-29T23:13:20.627Z,99.54
2023-01-29T23:17:19.886Z,99.18
2023-01-29T23:21:14.739Z,99.11
2023-01-29T23:25:11.632Z,99.01
2023-01-29T23:30:47.915Z,99.17
2023-01-29T23:35:04.990Z,98.91
2023-01-29T23:38:39.971Z,98.37
2023-01-29T23:41:25.393Z,98.28
2023-01-29T23:44:10.524Z,98.12
2023-01-29T23:47:21.727Z,97.96
2023-01-29T23:50:07.673Z,98.01
2023-01-29T23:52:52.995Z,97.69
2023-01-29T23:55:38.262Z,97.46
2023-01-29T23:58:23.807Z,97.04
